Time;durP1;ratioP1;P1;durP2;ratioP2;P2;SDS_P1;SDS_P2;PMS_P1;PMS_P2;Temp;Humidity;BMP_temperature;BMP_pressure;BME280_temperature;BME280_humidity;BME280_pressure;Samples;Min_cycle;Max_cycle;Signal;HPM_P1;HPM_P2
2022/08/23 00:02:08;;;;;;;5.30;2.30;;;;;;;16.37;84.02;95227.44;1706942;84;21009;-69
2022/08/23 00:04:41;;;;;;;5.75;2.40;;;;;;;16.38;84.61;95223.38;1704165;84;21065;-69
2022/08/23 00:07:12;;;;;;;9.58;2.65;;;;;;;16.42;84.72;95226.75;1707490;84;21013;-69
2022/08/23 00:09:39;;;;;;;8.05;3.10;;;;;;;16.38;84.68;95230.04;1704235;84;21105;-69
2022/08/23 00:12:20;;;;;;;4.30;2.30;;;;;;;16.37;84.75;95233.61;1707190;84;21002;-69
2022/08/23 00:14:51;;;;;;;5.67;2.22;;;;;;;16.36;85.08;95231.90;1704319;84;21049;-69
2022/08/23 00:17:19;;;;;;;8.10;2.55;;;;;;;16.38;84.43;95235.36;1707252;84;21491;-69
2022/08/23 00:19:48;;;;;;;9.13;2.20;;;;;;;16.38;84.62;95234.50;1704307;84;21058;-69
2022/08/23 00:22:16;;;;;;;9.33;2.40;;;;;;;16.39;84.39;95229.09;1707371;84;21026;-69
2022/08/23 00:24:44;;;;;;;6.37;2.80;;;;;;;16.41;84.41;95229.88;1704458;84;21152;-69
2022/08/23 00:27:15;;;;;;;8.00;2.75;;;;;;;16.40;83.98;95228.17;1707191;84;21029;-69
2022/08/23 00:29:46;;;;;;;5.28;2.60;;;;;;;16.32;83.97;95222.80;1706690;84;21506;-69
2022/08/23 00:32:21;;;;;;;4.17;2.42;;;;;;;16.27;84.25;95228.33;1706930;84;21038;-69
2022/08/23 00:34:49;;;;;;;4.72;2.20;;;;;;;16.31;84.37;95235.72;1710487;84;21045;-69
2022/08/23 00:37:17;;;;;;;4.58;1.95;;;;;;;16.25;84.75;95239.98;1706970;84;21080;-69
2022/08/23 00:39:44;;;;;;;8.95;2.55;;;;;;;16.20;84.61;95241.08;1710450;84;21014;-69
2022/08/23 00:48:16;;;;;;;4.45;2.12;;;;;;;16.14;85.14;95229.84;1710315;84;21486;-69
2022/08/23 00:51:03;;;;;;;8.25;2.55;;;;;;;16.14;85.28;95235.16;1706851;84;21049;-69
2022/08/23 00:53:34;;;;;;;7.08;2.70;;;;;;;16.16;85.48;95232.83;1710512;84;21464;-69
2022/08/23 00:56:05;;;;;;;3.05;2.25;;;;;;;16.21;84.87;95232.63;1706668;84;21069;-69
2022/08/23 00:58:32;;;;;;;9.70;2.42;;;;;;;16.21;84.61;95235.28;1710370;84;21042;-69
2022/08/23 01:01:02;;;;;;;4.33;2.22;;;;;;;16.20;85.27;95228.21;1710562;84;21005;-69
2022/08/23 01:03:32;;;;;;;9.85;2.95;;;;;;;16.25;85.66;95231.52;1680407;85;21054;-69
2022/08/23 01:06:11;;;;;;;5.70;2.67;;;;;;;16.26;85.11;95221.77;1680490;85;21065;-69
2022/08/23 01:08:41;;;;;;;7.70;2.67;;;;;;;16.32;85.32;95216.14;1680447;85;21519;-69
2022/08/23 01:11:16;;;;;;;6.03;3.10;;;;;;;16.38;84.75;95215.87;1680547;85;21017;-69
2022/08/23 01:14:12;;;;;;;3.55;2.58;;;;;;;16.32;84.81;95218.33;1704517;84;21570;-69
2022/08/23 01:16:56;;;;;;;5.33;2.65;;;;;;;16.25;84.41;95221.34;1706760;84;21076;-69
2022/08/23 01:19:31;;;;;;;9.13;2.83;;;;;;;16.12;84.80;95228.57;1710150;84;21041;-69
2022/08/23 01:22:40;;;;;;;4.17;2.98;;;;;;;16.20;85.30;95234.42;1706891;84;21069;-69
2022/08/23 01:25:11;;;;;;;4.35;2.17;;;;;;;16.21;84.84;95241.94;1710387;84;21052;-69
2022/08/23 01:27:45;;;;;;;10.55;2.33;;;;;;;16.09;84.32;95248.67;1706499;84;21524;-69
2022/08/23 01:30:19;;;;;;;10.32;2.33;;;;;;;16.00;84.19;95252.64;1709977;84;21046;-69
2022/08/23 01:32:50;;;;;;;6.53;2.60;;;;;;;16.00;84.39;95254.41;1707110;84;21562;-69
2022/08/23 01:35:20;;;;;;;8.23;2.77;;;;;;;15.97;84.53;95254.55;1710502;84;20994;-69
2022/08/23 01:37:47;;;;;;;8.73;2.98;;;;;;;15.98;85.11;95258.96;1710319;84;20998;-69
2022/08/23 01:40:14;;;;;;;9.20;2.98;;;;;;;16.04;85.93;95261.33;1706461;84;21045;-69
2022/08/23 01:42:42;;;;;;;10.18;2.90;;;;;;;16.00;84.94;95258.40;1710156;84;21029;-69
2022/08/23 01:45:13;;;;;;;9.78;2.90;;;;;;;16.01;85.04;95253.02;1706763;84;21014;-69
2022/08/23 01:47:41;;;;;;;7.78;2.90;;;;;;;16.08;85.35;95247.44;1710396;84;21065;-69
2022/08/23 01:50:11;;;;;;;9.28;2.95;;;;;;;16.06;84.45;95253.29;1710259;84;21010;-69
2022/08/23 01:52:39;;;;;;;5.22;2.95;;;;;;;16.00;84.75;95261.06;1706770;84;21073;-69
2022/08/23 01:55:07;;;;;;;11.08;2.80;;;;;;;16.05;85.71;95259.53;1710199;84;21038;-69
2022/08/23 01:57:34;;;;;;;5.33;2.55;;;;;;;16.09;85.54;95269.11;1710283;84;21022;-69
2022/08/23 02:00:06;;;;;;;8.95;2.90;;;;;;;16.03;85.25;95262.72;1706766;84;21086;-69
2022/08/23 02:02:36;;;;;;;11.17;2.73;;;;;;;16.05;85.44;95262.19;1709424;84;21069;-69
2022/08/23 02:05:06;;;;;;;8.60;3.45;;;;;;;16.08;85.89;95263.41;1706932;84;21053;-69
2022/08/23 02:07:33;;;;;;;9.63;3.52;;;;;;;16.16;86.36;95260.77;1710394;84;21089;-68
2022/08/23 02:10:01;;;;;;;10.93;4.50;;;;;;;16.30;86.70;95256.61;1706732;84;20990;-68
2022/08/23 02:12:28;;;;;;;7.75;2.90;;;;;;;16.35;86.23;95243.94;1709886;84;21009;-69
2022/08/23 02:14:57;;;;;;;8.38;3.70;;;;;;;16.37;85.66;95240.75;1678282;85;21050;-68
2022/08/23 02:17:26;;;;;;;7.05;4.30;;;;;;;16.35;85.71;95244.80;1706636;84;21046;-68
2022/08/23 02:19:54;;;;;;;6.70;4.17;;;;;;;16.39;86.50;95246.88;1710457;84;21033;-68
2022/08/23 02:22:21;;;;;;;13.93;5.60;;;;;;;16.45;86.53;95243.91;1706631;84;21452;-68
2022/08/23 02:24:49;;;;;;;6.90;4.22;;;;;;;16.57;86.55;95247.80;1710005;84;21121;-68
2022/08/23 02:27:16;;;;;;;7.97;4.33;;;;;;;16.60;86.10;95251.16;1706448;84;21081;-68
2022/08/23 02:29:46;;;;;;;11.60;4.55;;;;;;;16.60;85.97;95255.16;1680921;84;21050;-68
2022/08/23 02:32:16;;;;;;;7.20;4.22;;;;;;;16.65;85.80;95249.62;1707004;84;21043;-68
2022/08/23 02:34:44;;;;;;;7.12;3.98;;;;;;;16.61;85.05;95249.39;1704238;84;21077;-68
2022/08/23 02:37:13;;;;;;;11.97;5.55;;;;;;;16.47;84.39;95252.69;1707140;84;21042;-68
2022/08/23 02:39:42;;;;;;;8.75;4.17;;;;;;;16.37;84.98;95253.58;1704177;84;21073;-68
2022/08/23 02:42:10;;;;;;;7.28;3.65;;;;;;;16.35;85.65;95263.44;1707037;84;21036;-68
2022/08/23 02:44:38;;;;;;;6.50;4.33;;;;;;;16.35;85.63;95254.12;1704309;84;21535;-68
2022/08/23 02:47:10;;;;;;;9.75;3.98;;;;;;;16.31;85.99;95267.20;1707307;84;21081;-68
2022/08/23 02:49:38;;;;;;;6.58;3.90;;;;;;;16.28;86.23;95270.01;1704492;84;21006;-69
2022/08/23 02:52:06;;;;;;;7.75;4.17;;;;;;;16.28;86.47;95273.11;1677602;84;21077;-69
2022/08/23 02:54:35;;;;;;;9.40;3.30;;;;;;;16.25;86.61;95270.13;1704295;84;21462;-69
2022/08/23 02:57:03;;;;;;;8.90;3.20;;;;;;;16.27;86.58;95281.57;1707134;84;21069;-69
2022/08/23 02:59:31;;;;;;;8.18;4.10;;;;;;;16.28;86.48;95283.77;1672312;84;21475;-69
2022/08/23 03:01:59;;;;;;;6.60;4.00;;;;;;;16.27;85.82;95285.56;1707221;84;21025;-69
2022/08/23 03:04:27;;;;;;;7.85;3.67;;;;;;;16.23;86.09;95284.86;1703865;84;21165;-69
2022/08/23 03:06:55;;;;;;;8.73;4.12;;;;;;;16.25;86.15;95286.57;1677580;84;21050;-69
2022/08/23 03:09:22;;;;;;;5.65;2.90;;;;;;;16.19;85.42;95290.38;1704323;84;21001;-69
2022/08/23 03:11:50;;;;;;;3.42;2.47;;;;;;;16.11;85.12;95291.20;1707206;84;21026;-69
2022/08/23 03:14:19;;;;;;;5.37;2.45;;;;;;;16.00;84.99;95287.23;1704304;84;21008;-69
2022/08/23 03:16:46;;;;;;;7.42;2.90;;;;;;;15.91;85.41;95288.95;1707191;84;21515;-69
2022/08/23 03:19:13;;;;;;;4.40;2.70;;;;;;;15.89;85.89;95291.30;1686239;84;20998;-69
2022/08/23 03:21:41;;;;;;;4.33;2.52;;;;;;;15.86;86.03;95290.10;1707294;84;20990;-69
2022/08/23 03:24:09;;;;;;;7.33;2.37;;;;;;;15.89;85.69;95304.59;1704239;84;21014;-69
2022/08/23 03:26:36;;;;;;;8.80;2.83;;;;;;;15.86;85.19;95311.39;1707090;84;21033;-69
2022/08/23 03:29:03;;;;;;;8.50;2.83;;;;;;;15.79;85.13;95310.30;1704051;84;21523;-69
2022/08/23 03:31:32;;;;;;;6.03;2.70;;;;;;;15.73;85.41;95323.88;1704564;84;21097;-69
2022/08/23 03:34:03;;;;;;;7.65;2.72;;;;;;;15.76;86.00;95325.55;1703777;84;21531;-69
2022/08/23 03:36:31;;;;;;;5.67;2.60;;;;;;;15.76;85.34;95324.22;1681621;85;21076;-69
2022/08/23 03:39:01;;;;;;;8.85;3.12;;;;;;;15.72;85.11;95323.50;1693984;85;21047;-69
2022/08/23 03:41:28;;;;;;;7.85;2.87;;;;;;;15.71;85.66;95324.88;1666007;85;21082;-69
2022/08/23 03:43:55;;;;;;;4.40;2.75;;;;;;;15.74;86.20;95328.73;1693948;85;21054;-69
2022/08/23 03:46:23;;;;;;;3.60;2.45;;;;;;;15.77;86.01;95336.58;1693644;85;21019;-69
2022/08/23 03:48:55;;;;;;;6.85;2.70;;;;;;;15.70;85.10;95330.67;1693948;84;21038;-69
2022/08/23 03:51:25;;;;;;;7.85;2.40;;;;;;;15.67;85.23;95333.88;1693494;85;21524;-69
2022/08/23 03:53:52;;;;;;;3.67;2.60;;;;;;;15.67;85.17;95326.76;1693817;84;21138;-69
2022/08/23 03:56:27;;;;;;;6.30;5.65;;;;;;;15.64;85.10;95326.03;1693522;85;21050;-69
2022/08/23 03:58:55;;;;;;;7.92;3.58;;;;;;;15.61;85.03;95327.50;1693924;85;21070;-69
2022/08/23 04:01:22;;;;;;;8.25;3.27;;;;;;;15.68;85.60;95328.98;1693792;85;21026;-69
2022/08/23 04:03:50;;;;;;;5.83;2.62;;;;;;;15.74;85.58;95320.75;1693962;84;21041;-69
2022/08/23 04:06:17;;;;;;;8.65;2.98;;;;;;;15.74;85.11;95324.27;1693973;85;21074;-69
2022/08/23 04:08:45;;;;;;;7.53;2.67;;;;;;;15.81;85.95;95319.56;1693825;85;21043;-69
2022/08/23 04:11:13;;;;;;;7.15;2.90;;;;;;;15.85;85.21;95329.16;1666389;85;21496;-69
2022/08/23 04:13:43;;;;;;;10.50;2.58;;;;;;;15.90;85.88;95323.16;1692648;85;21540;-69
2022/08/23 04:16:10;;;;;;;8.78;2.55;;;;;;;15.99;85.46;95326.73;1693803;85;21014;-69
2022/08/23 04:18:37;;;;;;;8.03;2.83;;;;;;;15.94;85.07;95327.88;1693979;85;20991;-69
2022/08/23 04:21:09;;;;;;;4.85;2.65;;;;;;;15.89;85.08;95333.39;1693879;85;21062;-69
2022/08/23 04:23:38;;;;;;;7.95;3.17;;;;;;;15.90;85.76;95330.25;1675398;85;21069;-69
2022/08/23 04:26:07;;;;;;;6.87;2.98;;;;;;;15.98;85.94;95330.80;1693886;85;21045;-69
2022/08/23 04:28:35;;;;;;;7.65;3.15;;;;;;;16.09;86.07;95326.33;1666018;85;21002;-69
2022/08/23 04:31:03;;;;;;;8.45;3.47;;;;;;;16.19;85.99;95326.32;1691728;84;21050;-69
2022/08/23 04:33:31;;;;;;;4.15;2.98;;;;;;;16.24;85.95;95330.97;1706967;84;21089;-69
2022/08/23 04:36:01;;;;;;;3.92;3.20;;;;;;;16.25;86.33;95321.18;1704121;84;21002;-69
2022/08/23 04:38:28;;;;;;;4.83;2.65;;;;;;;16.19;85.66;95320.52;1707184;84;21053;-69
2022/08/23 04:43:45;;;;;;;5.28;3.33;;;;;;;16.28;87.34;95327.25;1706942;84;21068;-69
2022/08/23 04:46:14;;;;;;;4.80;3.08;;;;;;;16.42;87.33;95327.46;1703930;84;21053;-69
2022/08/23 04:48:44;;;;;;;4.92;3.17;;;;;;;16.47;86.51;95323.73;1707163;84;21001;-69
2022/08/23 04:51:12;;;;;;;6.53;3.22;;;;;;;16.46;86.58;95324.21;1704179;84;21026;-69
2022/08/23 04:53:39;;;;;;;8.10;3.12;;;;;;;16.48;86.36;95325.45;1707194;84;21026;-70
2022/08/23 04:56:14;;;;;;;7.10;2.75;;;;;;;16.52;86.77;95322.58;1674418;84;20998;-69
2022/08/23 04:58:41;;;;;;;3.92;2.85;;;;;;;16.59;86.80;95329.36;1707093;84;21071;-69
2022/08/23 05:01:09;;;;;;;7.78;2.60;;;;;;;16.61;86.59;95330.63;1704452;84;20994;-69
2022/08/23 05:03:37;;;;;;;5.40;3.02;;;;;;;16.65;86.90;95330.39;1707257;84;21030;-69
2022/08/23 05:06:05;;;;;;;3.75;2.70;;;;;;;16.80;86.99;95333.31;1704367;84;21026;-70
2022/08/23 05:08:34;;;;;;;3.50;2.72;;;;;;;16.86;86.31;95327.72;1706535;84;21037;-69
2022/08/23 05:11:05;;;;;;;4.00;2.70;;;;;;;16.85;86.23;95324.16;1704139;84;21065;-69
2022/08/23 05:13:33;;;;;;;3.35;2.60;;;;;;;16.88;86.21;95333.80;1707190;84;21029;-69
2022/08/23 05:16:00;;;;;;;3.70;3.37;;;;;;;17.01;86.57;95336.75;1704258;84;21065;-69
2022/08/23 05:18:29;;;;;;;3.67;2.92;;;;;;;17.07;86.17;95340.00;1706931;84;21527;-70
2022/08/23 05:20:56;;;;;;;4.25;3.17;;;;;;;17.14;86.13;95340.58;1704351;84;21092;-69
2022/08/23 05:23:23;;;;;;;2.62;2.42;;;;;;;17.21;85.81;95343.78;1707255;84;21555;-69
2022/08/23 05:25:53;;;;;;;3.75;2.92;;;;;;;17.20;85.31;95338.93;1703369;84;21045;-69
2022/08/23 05:28:29;;;;;;;3.15;2.90;;;;;;;17.21;85.39;95340.67;1707375;83;21013;-69
2022/08/23 05:31:04;;;;;;;6.87;2.90;;;;;;;17.26;85.37;95345.76;1705885;84;21025;-69
2022/08/23 05:33:34;;;;;;;5.03;2.60;;;;;;;17.29;84.76;95349.16;1706009;84;21049;-69
2022/08/23 05:36:04;;;;;;;6.40;3.17;;;;;;;17.32;84.80;95351.28;1710332;84;21152;-69
2022/08/23 05:38:31;;;;;;;5.05;2.90;;;;;;;17.38;84.81;95358.50;1710379;84;21013;-69
2022/08/23 05:41:00;;;;;;;6.00;3.10;;;;;;;17.39;84.90;95356.72;1706576;84;21066;-69
2022/08/23 05:43:28;;;;;;;5.37;2.80;;;;;;;17.50;84.74;95361.04;1681982;84;21566;-69
2022/08/23 05:46:06;;;;;;;3.65;2.62;;;;;;;17.56;84.62;95359.86;1710289;84;21077;-69
2022/08/23 05:48:34;;;;;;;5.00;3.00;;;;;;;17.65;84.89;95358.94;1680463;85;21527;-69
2022/08/23 05:51:19;;;;;;;4.92;3.30;;;;;;;17.77;84.61;95355.28;1680605;85;21082;-69
2022/08/23 05:53:47;;;;;;;4.30;3.30;;;;;;;17.87;84.37;95360.57;1680144;85;21086;-69
2022/08/23 05:56:30;;;;;;;8.08;3.10;;;;;;;17.97;84.66;95360.49;1680442;84;21029;-69
2022/08/23 05:59:02;;;;;;;5.30;2.98;;;;;;;18.06;84.16;95364.00;1652541;85;21013;-69
2022/08/23 06:01:30;;;;;;;5.40;2.58;;;;;;;18.20;84.40;95357.10;1680248;85;21029;-69
2022/08/23 06:04:00;;;;;;;4.60;3.10;;;;;;;18.27;83.48;95360.70;1679962;85;21037;-68
2022/08/23 06:06:27;;;;;;;6.12;2.77;;;;;;;18.38;83.54;95353.45;1680418;85;21074;-69
2022/08/23 06:08:54;;;;;;;4.00;3.37;;;;;;;18.43;82.50;95359.89;1680504;85;21018;-69
2022/08/23 06:11:25;;;;;;;8.40;2.83;;;;;;;18.51;82.34;95362.53;1680481;85;21029;-69
2022/08/23 06:13:56;;;;;;;3.35;3.05;;;;;;;18.51;80.90;95359.00;1680326;85;21049;-68
2022/08/23 06:16:29;;;;;;;6.03;3.00;;;;;;;18.58;81.70;95356.39;1679414;85;21097;-69
2022/08/23 06:18:58;;;;;;;3.47;2.85;;;;;;;18.67;81.59;95359.03;1680525;85;21575;-69
2022/08/23 06:21:38;;;;;;;4.28;3.45;;;;;;;18.74;81.59;95353.75;1685434;84;21073;-69
2022/08/23 06:24:06;;;;;;;8.60;3.50;;;;;;;18.90;81.52;95352.01;1680214;85;21101;-69
2022/08/23 06:26:39;;;;;;;5.58;3.47;;;;;;;19.05;81.82;95345.40;1706716;84;21535;-69
2022/08/23 06:29:09;;;;;;;7.83;3.20;;;;;;;19.25;81.76;95353.16;1710114;84;21009;-69
2022/08/23 06:31:44;;;;;;;6.15;3.55;;;;;;;19.46;81.84;95349.75;1707566;84;21089;-69
2022/08/23 06:34:24;;;;;;;6.80;3.30;;;;;;;19.69;81.71;95350.27;1704180;84;21041;-69
2022/08/23 06:37:11;;;;;;;8.68;3.22;;;;;;;19.81;80.68;95348.22;1703519;84;21038;-68
2022/08/23 06:39:57;;;;;;;5.55;3.80;;;;;;;19.91;80.26;95349.84;1704174;84;21054;-68
2022/08/23 06:42:26;;;;;;;7.70;3.80;;;;;;;20.00;79.18;95347.98;1665067;84;21060;-68
2022/08/23 06:44:54;;;;;;;6.67;3.42;;;;;;;19.99;78.95;95344.44;1703121;84;21078;-68
2022/08/23 06:47:23;;;;;;;4.15;3.65;;;;;;;20.00;79.05;95344.81;1698546;84;21017;-68
2022/08/23 06:49:51;;;;;;;6.05;4.00;;;;;;;20.13;79.32;95353.45;1704228;84;21495;-68
2022/08/23 06:52:20;;;;;;;8.05;4.47;;;;;;;20.24;79.64;95357.23;1706123;84;21025;-68
2022/08/23 06:54:51;;;;;;;8.75;4.28;;;;;;;20.35;79.33;95355.23;1703217;84;21074;-68
2022/08/23 06:57:38;;;;;;;8.25;4.22;;;;;;;20.42;78.79;95353.90;1706380;84;21543;-68
2022/08/23 07:00:10;;;;;;;4.47;3.50;;;;;;;20.61;78.62;95349.63;1699150;84;21571;-68
2022/08/23 07:02:38;;;;;;;6.67;3.30;;;;;;;20.66;77.74;95357.38;1665792;84;21046;-68
2022/08/23 07:05:24;;;;;;;4.53;3.35;;;;;;;20.67;76.63;95353.28;1704489;84;21030;-68
2022/08/23 07:07:58;;;;;;;6.90;3.50;;;;;;;20.71;75.66;95360.64;1704175;84;21050;-68
2022/08/23 07:10:25;;;;;;;3.25;2.80;;;;;;;20.75;76.67;95362.19;1704149;84;21072;-68
2022/08/23 07:12:52;;;;;;;3.52;3.15;;;;;;;20.81;74.80;95356.91;1706859;84;21299;-68
2022/08/23 07:15:20;;;;;;;4.60;2.80;;;;;;;20.81;75.63;95353.74;1704496;84;20982;-68
2022/08/23 07:17:47;;;;;;;3.25;2.67;;;;;;;20.96;76.19;95356.83;1706872;84;21057;-68
2022/08/23 07:20:14;;;;;;;3.22;2.30;;;;;;;21.16;76.11;95358.70;1704294;84;21058;-69
2022/08/23 07:22:43;;;;;;;4.53;2.65;;;;;;;21.31;75.55;95353.68;1707416;84;21459;-68
2022/08/23 07:25:11;;;;;;;6.85;2.87;;;;;;;21.46;75.73;95353.69;1703769;84;21090;-69
2022/08/23 07:27:38;;;;;;;4.25;2.60;;;;;;;21.66;75.79;95360.43;1707269;84;21002;-68
2022/08/23 07:30:08;;;;;;;4.60;2.55;;;;;;;21.77;74.41;95358.77;1704239;84;21539;-69
2022/08/23 07:32:36;;;;;;;6.00;2.60;;;;;;;21.89;73.65;95357.06;1708556;83;21037;-69
2022/08/23 07:35:11;;;;;;;2.50;2.30;;;;;;;21.99;73.38;95354.14;1708754;84;21033;-69
2022/08/23 07:37:41;;;;;;;4.78;2.50;;;;;;;22.08;72.46;95358.05;1709882;84;21070;-68
2022/08/23 07:40:10;;;;;;;4.45;2.55;;;;;;;22.14;72.56;95357.61;1683464;84;21090;-68
2022/08/23 07:42:37;;;;;;;3.35;2.80;;;;;;;22.19;72.42;95357.30;1709711;84;21041;-68
2022/08/23 07:45:04;;;;;;;4.03;2.60;;;;;;;22.28;72.64;95363.44;1682185;85;21089;-68
2022/08/23 07:47:33;;;;;;;5.37;2.83;;;;;;;22.38;72.19;95366.36;1704682;84;21061;-68
2022/08/23 07:50:00;;;;;;;5.42;2.60;;;;;;;22.42;71.45;95353.91;1704547;84;21050;-68
2022/08/23 07:52:28;;;;;;;3.83;2.90;;;;;;;22.43;71.03;95354.31;1704527;84;21543;-68
2022/08/23 07:54:55;;;;;;;3.00;2.70;;;;;;;22.49;71.70;95357.55;1704849;84;21492;-69
2022/08/23 07:57:27;;;;;;;3.72;2.70;;;;;;;22.56;70.99;95352.97;1651555;84;21021;-68
2022/08/23 07:59:56;;;;;;;4.20;2.83;;;;;;;22.60;70.33;95351.80;1647450;84;21038;-68
2022/08/23 08:02:27;;;;;;;3.42;2.80;;;;;;;22.67;70.72;95353.56;1696744;84;21050;-69
2022/08/23 08:04:54;;;;;;;6.60;2.60;;;;;;;22.80;70.87;95354.41;1704701;84;21516;-67
2022/08/23 08:07:21;;;;;;;4.17;2.70;;;;;;;22.89;70.11;95354.25;1682298;85;21045;-67
2022/08/23 08:09:49;;;;;;;3.10;2.52;;;;;;;22.99;70.12;95351.80;1704271;84;21543;-67
2022/08/23 08:12:17;;;;;;;2.98;2.67;;;;;;;23.11;69.85;95348.23;1682414;85;21093;-67
2022/08/23 08:14:44;;;;;;;3.77;2.85;;;;;;;23.20;67.96;95348.89;1704381;84;21033;-67
2022/08/23 08:17:12;;;;;;;3.58;2.80;;;;;;;23.27;68.90;95348.83;1704761;84;21033;-67
2022/08/23 08:19:40;;;;;;;5.25;2.98;;;;;;;23.35;68.23;95350.96;1677274;84;21074;-69
2022/08/23 08:22:09;;;;;;;4.87;3.25;;;;;;;23.42;68.57;95356.77;1692878;84;21074;-68
2022/08/23 08:24:43;;;;;;;2.95;2.42;;;;;;;23.46;67.98;95351.05;1699883;84;21089;-69
2022/08/23 08:27:12;;;;;;;3.05;2.72;;;;;;;23.52;67.47;95355.97;1704866;84;21026;-69
2022/08/23 08:29:40;;;;;;;3.05;2.50;;;;;;;23.62;67.87;95349.92;1682330;85;21048;-69
2022/08/23 08:32:07;;;;;;;3.58;2.98;;;;;;;23.65;66.57;95351.03;1701623;84;21030;-69
2022/08/23 08:34:35;;;;;;;3.27;2.70;;;;;;;23.70;66.79;95351.05;1697234;84;21141;-69
2022/08/23 08:37:02;;;;;;;5.50;2.90;;;;;;;23.72;67.25;95357.22;1667874;84;21046;-69
2022/08/23 08:39:31;;;;;;;5.12;2.80;;;;;;;23.78;67.78;95351.86;1697055;84;21142;-69
2022/08/23 08:42:46;;;;;;;3.67;2.52;;;;;;;23.85;67.28;95352.27;1697285;84;21565;-69
2022/08/23 08:45:28;;;;;;;2.92;2.62;;;;;;;23.94;66.94;95356.98;1696722;84;21054;-69
2022/08/23 08:48:03;;;;;;;3.47;2.95;;;;;;;24.04;67.25;95363.85;1697292;84;21061;-68
2022/08/23 08:50:39;;;;;;;3.77;3.00;;;;;;;24.01;64.72;95360.05;1696712;84;21022;-69
2022/08/23 08:53:32;;;;;;;3.55;2.67;;;;;;;24.04;65.85;95365.20;1704321;84;21487;-68
2022/08/23 08:56:12;;;;;;;3.80;2.42;;;;;;;24.17;66.57;95364.17;1705014;84;21061;-69
2022/08/23 08:58:51;;;;;;;3.67;2.58;;;;;;;24.36;66.00;95370.84;1696325;84;21578;-69
2022/08/23 09:01:21;;;;;;;5.97;2.87;;;;;;;24.46;63.40;95369.68;1706943;84;21038;-70
2022/08/23 09:03:48;;;;;;;3.08;2.70;;;;;;;24.50;64.34;95370.67;1704176;84;21106;-70
2022/08/23 09:06:42;;;;;;;4.05;2.72;;;;;;;24.65;64.23;95366.43;1707398;84;21034;-67
2022/08/23 09:09:36;;;;;;;3.83;2.58;;;;;;;24.79;64.01;95363.48;1642754;87;21508;-69
2022/08/23 09:12:20;;;;;;;3.10;2.80;;;;;;;24.86;63.46;95364.73;1584661;90;21066;-69
2022/08/23 09:15:04;;;;;;;3.17;2.80;;;;;;;24.93;62.54;95359.72;1694092;84;21045;-69
2022/08/23 09:17:52;;;;;;;3.95;2.90;;;;;;;25.06;63.36;95361.80;1709645;84;21551;-69
2022/08/23 09:20:21;;;;;;;5.67;3.15;;;;;;;25.21;62.76;95359.25;1704168;84;21026;-70
2022/08/23 09:23:01;;;;;;;3.83;2.55;;;;;;;25.22;61.68;95354.23;1709583;84;21041;-70
2022/08/23 09:25:29;;;;;;;3.22;2.50;;;;;;;25.24;61.84;95349.55;1704579;84;21081;-70
2022/08/23 09:28:15;;;;;;;3.85;2.60;;;;;;;25.21;61.40;95348.45;1709885;84;21013;-70
2022/08/23 09:30:54;;;;;;;7.17;3.60;;;;;;;25.30;60.87;95345.98;1679473;84;21101;-69
2022/08/23 09:33:27;;;;;;;7.75;3.83;;;;;;;25.42;60.63;95349.89;1679747;84;21531;-70
2022/08/23 09:36:27;;;;;;;5.22;3.30;;;;;;;25.55;60.97;95351.13;1709129;84;21005;-70
2022/08/23 09:39:01;;;;;;;7.33;3.55;;;;;;;25.69;61.72;95354.02;1709405;84;21065;-70
2022/08/23 09:41:40;;;;;;;5.53;3.15;;;;;;;25.87;59.51;95351.17;1709451;84;21543;-70
2022/08/23 09:44:15;;;;;;;3.47;2.75;;;;;;;25.90;60.30;95351.41;1709418;84;21072;-70
2022/08/23 09:46:42;;;;;;;4.92;3.37;;;;;;;26.07;60.67;95348.66;1709693;84;21017;-70
2022/08/23 09:49:28;;;;;;;3.65;3.33;;;;;;;26.19;58.19;95344.92;1709739;84;21065;-67
2022/08/23 09:52:20;;;;;;;8.10;3.52;;;;;;;26.23;58.88;95345.03;1708674;84;21507;-70
2022/08/23 09:55:02;;;;;;;5.62;3.20;;;;;;;26.34;60.04;95350.38;1709667;84;21018;-68
2022/08/23 09:57:32;;;;;;;5.40;3.00;;;;;;;26.43;58.02;95338.40;1709867;84;21045;-69
2022/08/23 10:00:22;;;;;;;4.40;3.15;;;;;;;26.55;58.11;95334.67;1709305;84;21340;-70
2022/08/23 10:02:50;;;;;;;5.60;3.40;;;;;;;26.67;58.87;95334.97;1691789;84;20986;-68
2022/08/23 10:05:30;;;;;;;3.30;3.00;;;;;;;26.79;58.08;95335.77;1709101;84;21022;-68
2022/08/23 10:08:00;;;;;;;5.97;3.05;;;;;;;26.90;56.78;95326.19;1709432;83;21009;-69
2022/08/23 10:10:47;;;;;;;9.40;3.30;;;;;;;27.00;56.36;95330.30;1709549;84;21062;-69
2022/08/23 10:13:15;;;;;;;4.87;2.72;;;;;;;27.15;56.56;95330.80;1709540;84;20966;-70
2022/08/23 10:16:14;;;;;;;7.53;3.22;;;;;;;27.49;58.14;95334.06;1709516;84;20970;-70
2022/08/23 10:19:07;;;;;;;5.28;3.12;;;;;;;27.76;56.37;95337.49;1707866;84;21109;-70
2022/08/23 10:22:04;;;;;;;7.72;2.83;;;;;;;28.01;55.51;95332.06;1709395;84;21053;-68
2022/08/23 10:24:59;;;;;;;7.40;2.85;;;;;;;28.18;55.90;95330.51;1709530;84;21061;-70
2022/08/23 10:31:12;;;;;;;5.50;2.83;;;;;;;27.86;54.75;95332.62;1709396;84;21018;-70
2022/08/23 10:34:03;;;;;;;6.40;2.62;;;;;;;27.66;55.09;95342.03;1712214;84;21049;-68
2022/08/23 10:36:47;;;;;;;7.25;3.20;;;;;;;27.39;55.48;95338.13;1713114;84;21026;-69
2022/08/23 10:39:28;;;;;;;4.40;3.22;;;;;;;26.98;55.74;95331.78;1712910;84;21495;-69
2022/08/23 10:42:32;;;;;;;5.90;3.67;;;;;;;26.46;55.47;95321.89;1712435;84;21045;-69
2022/08/23 10:45:16;;;;;;;4.95;3.10;;;;;;;26.02;57.13;95330.11;1712038;84;21510;-69
2022/08/23 10:48:06;;;;;;;5.15;2.90;;;;;;;25.59;57.64;95335.01;1705770;84;21570;-70
2022/08/23 10:50:47;;;;;;;5.58;3.02;;;;;;;25.33;58.58;95326.35;1712903;84;21487;-70
2022/08/23 10:53:18;;;;;;;5.12;3.25;;;;;;;25.10;59.41;95323.25;1694120;84;21034;-68
2022/08/23 10:56:12;;;;;;;6.50;3.30;;;;;;;24.91;59.71;95314.44;1712931;84;21048;-69
2022/08/23 10:58:47;;;;;;;4.83;3.47;;;;;;;24.78;60.41;95327.55;1712579;84;21061;-69
2022/08/23 11:01:22;;;;;;;9.88;3.60;;;;;;;24.66;61.24;95324.47;1712404;84;20994;-69
2022/08/23 11:04:10;;;;;;;8.95;4.12;;;;;;;24.57;61.31;95330.61;1686490;84;21017;-69
2022/08/23 11:06:54;;;;;;;9.30;3.95;;;;;;;24.40;63.87;95339.48;1712811;84;20993;-68
2022/08/23 11:09:26;;;;;;;6.55;4.40;;;;;;;24.35;63.88;95358.34;1712762;84;21575;-69
2022/08/23 11:12:17;;;;;;;7.90;4.55;;;;;;;24.31;64.42;95358.20;1713165;84;21001;-70
2022/08/23 11:15:05;;;;;;;7.28;4.92;;;;;;;24.27;64.53;95358.94;1713235;84;21539;-69
2022/08/23 11:17:51;;;;;;;6.90;4.40;;;;;;;24.18;65.03;95353.74;1712904;84;21029;-69
2022/08/23 11:20:52;;;;;;;8.03;4.62;;;;;;;24.10;65.73;95360.22;1712957;84;21068;-68
2022/08/23 11:24:02;;;;;;;8.50;4.30;;;;;;;23.95;66.02;95363.58;1712172;84;21005;-70
2022/08/23 11:26:40;;;;;;;4.95;4.20;;;;;;;23.84;68.01;95366.23;1712993;84;21503;-68
2022/08/23 11:29:25;;;;;;;6.72;4.25;;;;;;;23.73;67.57;95363.46;1712934;84;20966;-69
2022/08/23 11:32:14;;;;;;;7.12;4.22;;;;;;;23.65;67.65;95366.70;1710158;84;21022;-70
2022/08/23 11:35:13;;;;;;;5.22;3.10;;;;;;;23.53;68.93;95367.10;1712057;84;21495;-69
2022/08/23 11:37:58;;;;;;;8.38;4.15;;;;;;;23.40;69.18;95368.98;1703662;84;21010;-69
2022/08/23 11:40:43;;;;;;;6.53;4.67;;;;;;;23.31;69.87;95362.95;1712948;84;21028;-70
2022/08/23 11:43:28;;;;;;;9.70;4.85;;;;;;;23.29;70.64;95371.61;1694639;84;20994;-69
2022/08/23 11:46:26;;;;;;;6.08;3.70;;;;;;;23.25;70.40;95379.52;1702234;84;21057;-69
2022/08/23 11:49:23;;;;;;;8.33;5.08;;;;;;;23.23;71.01;95374.23;1712674;84;21041;-69
2022/08/23 11:52:28;;;;;;;7.65;4.17;;;;;;;23.15;71.82;95363.66;1712773;84;21040;-69
2022/08/23 11:55:24;;;;;;;6.12;4.10;;;;;;;23.13;71.73;95362.41;1693465;84;21037;-69
2022/08/23 11:58:02;;;;;;;4.17;3.77;;;;;;;23.15;72.44;95359.63;1712673;84;21113;-69
2022/08/23 12:00:56;;;;;;;5.03;3.58;;;;;;;23.15;72.07;95361.83;1712428;84;21100;-68
2022/08/23 12:03:34;;;;;;;5.87;3.65;;;;;;;23.10;72.72;95357.27;1712033;84;21467;-68
2022/08/23 12:06:25;;;;;;;10.40;4.08;;;;;;;22.96;73.64;95364.95;1712504;84;21089;-68
2022/08/23 12:09:03;;;;;;;6.05;3.98;;;;;;;22.87;73.62;95359.73;1713114;84;21021;-68
2022/08/23 12:11:56;;;;;;;7.42;3.98;;;;;;;22.83;73.66;95365.43;1712933;84;21488;-69
2022/08/23 12:14:44;;;;;;;7.42;3.75;;;;;;;22.80;73.98;95350.37;1651177;87;21036;-68
2022/08/23 12:17:24;;;;;;;4.00;3.22;;;;;;;22.85;74.41;95346.02;1705643;84;21021;-68
2022/08/23 12:19:58;;;;;;;5.35;3.70;;;;;;;22.75;74.50;95356.56;1712944;84;20981;-68